createdAt,value
2023-05-06T00:00:11.400Z,1007.93
2023-05-06T00:01:11.362Z,1007.91
2023-05-06T00:02:11.352Z,1007.89
2023-05-06T00:03:11.426Z,1007.88
2023-05-06T00:04:11.370Z,1007.90
2023-05-06T00:05:11.868Z,1007.98
2023-05-06T00:06:11.355Z,1007.99
2023-05-06T00:07:11.306Z,1008.02
2023-05-06T00:08:11.319Z,1007.98
2023-05-06T00:09:11.337Z,1007.98
2023-05-06T00:10:11.327Z,1007.98
2023-05-06T00:11:11.284Z,1007.97
2023-05-06T00:12:11.286Z,1008.02
2023-05-06T00:13:11.318Z,1008.03
2023-05-06T00:14:11.246Z,1008.04
2023-05-06T00:15:11.582Z,1008.01
2023-05-06T00:16:11.239Z,1008.04
2023-05-06T00:17:11.207Z,1008.04
2023-05-06T00:18:11.213Z,1007.96
2023-05-06T00:19:11.198Z,1008.00
2023-05-06T00:20:11.178Z,1007.97
2023-05-06T00:21:11.204Z,1007.94
2023-05-06T00:22:11.147Z,1007.96
2023-05-06T00:23:11.143Z,1007.93
2023-05-06T00:24:11.170Z,1007.93
2023-05-06T00:25:11.360Z,1007.92
2023-05-06T00:26:11.087Z,1007.93
2023-05-06T00:27:11.091Z,1007.92
2023-05-06T00:28:11.086Z,1007.98
2023-05-06T00:29:11.119Z,1007.99
2023-05-06T00:30:11.095Z,1008.01
2023-05-06T00:31:11.046Z,1008.01
2023-05-06T00:32:11.172Z,1008.04
2023-05-06T00:33:11.132Z,1008.01
2023-05-06T00:34:11.022Z,1008.04
2023-05-06T00:35:11.241Z,1008.02
2023-05-06T00:36:11.067Z,1008.05
2023-05-06T00:37:10.989Z,1008.04
2023-05-06T00:38:10.989Z,1008.07
2023-05-06T00:39:10.959Z,1008.05
2023-05-06T00:40:10.946Z,1008.07
2023-05-06T00:41:10.962Z,1008.12
2023-05-06T00:42:10.921Z,1008.13
2023-05-06T00:43:10.950Z,1008.17
2023-05-06T00:44:10.888Z,1008.12
2023-05-06T00:45:11.098Z,1008.13
2023-05-06T00:46:10.921Z,1008.14
2023-05-06T00:47:10.872Z,1008.13
2023-05-06T00:48:10.922Z,1008.12
2023-05-06T00:49:10.878Z,1008.14
2023-05-06T00:50:10.837Z,1008.15
2023-05-06T00:51:10.825Z,1008.13
2023-05-06T00:52:10.805Z,1008.15
2023-05-06T00:53:10.844Z,1008.10
2023-05-06T00:54:10.787Z,1008.11
2023-05-06T00:55:11.024Z,1008.18
2023-05-06T00:56:10.783Z,1008.18
2023-05-06T00:57:10.767Z,1008.18
2023-05-06T00:58:10.731Z,1008.13
2023-05-06T00:59:10.768Z,1008.15
2023-05-06T01:00:10.717Z,1008.14
2023-05-06T01:01:10.847Z,1008.13
2023-05-06T01:02:10.710Z,1008.17
2023-05-06T01:03:10.772Z,1008.22
2023-05-06T01:04:10.721Z,1008.12
2023-05-06T01:05:10.962Z,1008.13
2023-05-06T01:06:10.682Z,1008.14
2023-05-06T01:07:10.723Z,1008.19
2023-05-06T01:08:10.624Z,1008.17
2023-05-06T01:09:10.646Z,1008.11
2023-05-06T01:10:10.637Z,1008.18
2023-05-06T01:11:10.609Z,1008.08
2023-05-06T01:12:19.174Z,1008.15
2023-05-06T01:13:10.635Z,1008.10
2023-05-06T01:14:11.287Z,1008.16
2023-05-06T01:15:10.809Z,1008.14
2023-05-06T01:16:10.568Z,1008.12
2023-05-06T01:17:10.665Z,1008.09
2023-05-06T01:18:10.590Z,1008.10
2023-05-06T01:19:10.554Z,1008.09
2023-05-06T01:20:10.515Z,1008.12
2023-05-06T01:21:10.513Z,1008.09
2023-05-06T01:22:10.512Z,1008.10
2023-05-06T01:23:10.490Z,1008.05
2023-05-06T01:24:10.478Z,1008.05
2023-05-06T01:25:10.702Z,1008.03
2023-05-06T01:26:10.472Z,1008.04
2023-05-06T01:27:10.445Z,1008.03
2023-05-06T01:28:10.484Z,1008.03
2023-05-06T01:29:10.446Z,1008.00
2023-05-06T01:30:10.414Z,1008.02
2023-05-06T01:31:10.460Z,1007.98
2023-05-06T01:32:10.385Z,1008.02
2023-05-06T01:33:10.380Z,1008.02
2023-05-06T01:34:10.361Z,1008.03
2023-05-06T01:35:10.591Z,1008.03
2023-05-06T01:36:10.356Z,1008.05
2023-05-06T01:37:10.322Z,1008.02
2023-05-06T01:38:10.351Z,1008.06
2023-05-06T01:39:10.344Z,1007.97
2023-05-06T01:40:10.317Z,1008.05
2023-05-06T01:41:10.299Z,1008.01
2023-05-06T01:42:10.286Z,1008.01
2023-05-06T01:43:10.299Z,1008.00
2023-05-06T01:44:10.246Z,1008.00
2023-05-06T01:45:10.443Z,1008.00
2023-05-06T01:46:10.298Z,1007.99
2023-05-06T01:47:10.253Z,1007.94
2023-05-06T01:48:10.268Z,1007.96
2023-05-06T01:49:10.223Z,1007.94
2023-05-06T01:50:10.182Z,1007.96
2023-05-06T01:51:10.201Z,1008.01
2023-05-06T01:52:10.177Z,1008.00
2023-05-06T01:53:10.183Z,1008.04
2023-05-06T01:54:10.133Z,1008.07
2023-05-06T01:55:10.275Z,1007.99
2023-05-06T01:56:10.139Z,1008.01
2023-05-06T01:57:10.123Z,1008.08
2023-05-06T01:58:10.120Z,1008.07
2023-05-06T01:59:10.133Z,1008.06
2023-05-06T02:00:10.092Z,1008.06
2023-05-06T02:01:10.307Z,1008.05
2023-05-06T02:02:10.146Z,1008.06
2023-05-06T02:03:10.149Z,1008.08
2023-05-06T02:04:10.060Z,1007.99
2023-05-06T02:05:10.277Z,1008.02
2023-05-06T02:06:10.012Z,1008.05
2023-05-06T02:07:10.030Z,1008.09
2023-05-06T02:08:09.984Z,1008.07
2023-05-06T02:09:10.184Z,1008.08
2023-05-06T02:10:10.000Z,1008.09
2023-05-06T02:11:09.970Z,1008.06
2023-05-06T02:12:09.943Z,1008.03
2023-05-06T02:13:09.995Z,1008.00
2023-05-06T02:14:09.916Z,1008.05
2023-05-06T02:15:10.156Z,1008.04
2023-05-06T02:16:09.970Z,1008.05
2023-05-06T02:17:09.945Z,1008.00
2023-05-06T02:18:09.871Z,1008.01
2023-05-06T02:19:09.880Z,1008.00
2023-05-06T02:20:09.867Z,1008.00
2023-05-06T02:21:09.876Z,1008.08
2023-05-06T02:22:09.838Z,1008.06
2023-05-06T02:23:09.846Z,1008.12
2023-05-06T02:24:09.806Z,1008.12
2023-05-06T02:25:10.084Z,1008.07
2023-05-06T02:26:09.818Z,1008.09
2023-05-06T02:27:09.786Z,1008.10
2023-05-06T02:28:09.775Z,1008.18
2023-05-06T02:29:09.765Z,1008.13
2023-05-06T02:30:09.775Z,1008.12
2023-05-06T02:31:09.782Z,1008.14
2023-05-06T02:32:09.726Z,1008.11
2023-05-06T02:33:09.751Z,1008.07
2023-05-06T02:34:09.709Z,1008.11
2023-05-06T02:35:10.080Z,1008.09
2023-05-06T02:36:09.696Z,1008.06
2023-05-06T02:37:09.702Z,1008.01
2023-05-06T02:38:09.690Z,1008.07
2023-05-06T02:39:09.694Z,1008.07
2023-05-06T02:40:09.694Z,1008.06
2023-05-06T02:41:09.654Z,1008.08
2023-05-06T02:42:09.635Z,1008.05
2023-05-06T02:43:09.642Z,1008.01
2023-05-06T02:44:09.618Z,1008.03
2023-05-06T02:45:09.834Z,1007.98
2023-05-06T02:46:09.620Z,1007.98
2023-05-06T02:47:09.579Z,1008.01
2023-05-06T02:48:09.578Z,1007.99
2023-05-06T02:49:09.562Z,1007.99
2023-05-06T02:50:09.550Z,1007.99
2023-05-06T02:51:09.559Z,1007.98
2023-05-06T02:52:09.524Z,1008.00
2023-05-06T02:53:09.546Z,1008.03
2023-05-06T02:54:09.507Z,1008.02
2023-05-06T02:55:09.680Z,1008.04
2023-05-06T02:56:09.490Z,1008.08
2023-05-06T02:57:09.472Z,1008.06
2023-05-06T02:58:09.464Z,1008.03
2023-05-06T02:59:09.459Z,1008.00
2023-05-06T03:00:09.450Z,1008.00
2023-05-06T03:01:09.468Z,1008.02
2023-05-06T03:02:09.420Z,1007.95
2023-05-06T03:03:09.427Z,1007.94
2023-05-06T03:04:09.427Z,1007.99
2023-05-06T03:05:09.580Z,1007.96
2023-05-06T03:06:09.364Z,1007.99
2023-05-06T03:07:09.365Z,1007.97
2023-05-06T03:08:09.360Z,1007.98
2023-05-06T03:09:09.336Z,1008.00
2023-05-06T03:10:09.329Z,1007.96
2023-05-06T03:11:09.507Z,1008.01
2023-05-06T03:12:09.300Z,1007.99
2023-05-06T03:13:09.333Z,1007.99
2023-05-06T03:14:09.287Z,1007.98
2023-05-06T03:15:09.509Z,1008.00
2023-05-06T03:16:09.280Z,1008.03
2023-05-06T03:17:09.252Z,1008.01
2023-05-06T03:18:09.267Z,1008.00
2023-05-06T03:19:09.228Z,1008.04
2023-05-06T03:20:09.213Z,1008.01
2023-05-06T03:21:09.281Z,1008.01
2023-05-06T03:22:09.183Z,1008.00
2023-05-06T03:23:09.194Z,1008.05
2023-05-06T03:24:09.168Z,1007.99
2023-05-06T03:25:09.342Z,1008.03
2023-05-06T03:26:09.156Z,1008.00
2023-05-06T03:27:09.181Z,1008.01
2023-05-06T03:28:09.125Z,1008.04
2023-05-06T03:29:09.140Z,1008.04
2023-05-06T03:30:09.111Z,1008.05
2023-05-06T03:31:09.131Z,1008.11
2023-05-06T03:32:09.118Z,1008.11
2023-05-06T03:33:09.090Z,1008.07
2023-05-06T03:34:09.065Z,1008.07
2023-05-06T03:35:09.309Z,1008.05
2023-05-06T03:36:09.068Z,1008.06
2023-05-06T03:37:09.111Z,1008.05
2023-05-06T03:38:09.027Z,1008.11
2023-05-06T03:39:09.034Z,1008.09
2023-05-06T03:40:09.018Z,1008.11
2023-05-06T03:41:09.008Z,1008.19
2023-05-06T03:42:09.829Z,1008.18
2023-05-06T03:43:08.958Z,1008.17
2023-05-06T03:44:08.937Z,1008.12
2023-05-06T03:45:09.314Z,1008.17
2023-05-06T03:46:08.952Z,1008.16
2023-05-06T03:47:08.945Z,1008.17
2023-05-06T03:48:08.955Z,1008.17
2023-05-06T03:49:08.898Z,1008.11
2023-05-06T03:50:08.906Z,1008.10
2023-05-06T03:51:08.870Z,1008.13
2023-05-06T03:52:08.861Z,1008.17
2023-05-06T03:53:08.873Z,1008.14
2023-05-06T03:54:08.847Z,1008.12
2023-05-06T03:55:09.042Z,1008.13
2023-05-06T03:56:08.813Z,1008.13
2023-05-06T03:57:08.816Z,1008.10
2023-05-06T03:58:08.812Z,1008.16
2023-05-06T03:59:08.803Z,1008.17
2023-05-06T04:00:08.798Z,1008.21
2023-05-06T04:01:08.762Z,1008.20
2023-05-06T04:02:08.794Z,1008.19
2023-05-06T04:03:08.750Z,1008.21
2023-05-06T04:04:08.827Z,1008.19
2023-05-06T04:05:09.020Z,1008.23
2023-05-06T04:06:09.381Z,1008.26
2023-05-06T04:07:08.702Z,1008.22
2023-05-06T04:08:08.721Z,1008.22
2023-05-06T04:09:08.659Z,1008.28
2023-05-06T04:10:08.675Z,1008.23
2023-05-06T04:11:08.659Z,1008.22
2023-05-06T04:12:08.657Z,1008.22
2023-05-06T04:13:08.814Z,1008.23
2023-05-06T04:14:08.644Z,1008.18
2023-05-06T04:15:08.833Z,1008.20
2023-05-06T04:16:09.651Z,1008.16
2023-05-06T04:17:08.632Z,1008.15
2023-05-06T04:18:08.667Z,1008.17
2023-05-06T04:19:08.576Z,1008.19
2023-05-06T04:20:08.695Z,1008.13
2023-05-06T04:21:08.537Z,1008.22
2023-05-06T04:22:08.543Z,1008.22
2023-05-06T04:23:08.581Z,1008.22
2023-05-06T04:24:08.538Z,1008.22
2023-05-06T04:25:08.888Z,1008.25
2023-05-06T04:26:08.529Z,1008.30
2023-05-06T04:27:08.560Z,1008.26
2023-05-06T04:28:08.532Z,1008.23
2023-05-06T04:29:08.475Z,1008.27
2023-05-06T04:30:08.506Z,1008.25
2023-05-06T04:31:08.569Z,1008.29
2023-05-06T04:32:08.484Z,1008.29
2023-05-06T04:33:08.496Z,1008.32
2023-05-06T04:34:08.440Z,1008.31
2023-05-06T04:35:08.714Z,1008.31
2023-05-06T04:36:08.428Z,1008.32
2023-05-06T04:37:08.381Z,1008.32
2023-05-06T04:38:08.407Z,1008.28
2023-05-06T04:39:08.379Z,1008.31
2023-05-06T04:40:08.393Z,1008.38
2023-05-06T04:41:08.357Z,1008.35
2023-05-06T04:42:08.367Z,1008.38
2023-05-06T04:43:08.333Z,1008.43
2023-05-06T04:44:08.431Z,1008.43
2023-05-06T04:45:08.512Z,1008.45
2023-05-06T04:46:08.435Z,1008.43
2023-05-06T04:47:08.283Z,1008.42
2023-05-06T04:48:08.299Z,1008.45
2023-05-06T04:49:08.810Z,1008.41
2023-05-06T04:50:08.299Z,1008.41
2023-05-06T04:51:08.247Z,1008.41
2023-05-06T04:52:08.249Z,1008.37
2023-05-06T04:53:08.244Z,1008.36
2023-05-06T04:54:08.213Z,1008.37
2023-05-06T04:55:08.445Z,1008.37
2023-05-06T04:56:08.208Z,1008.38
2023-05-06T04:57:08.200Z,1008.41
2023-05-06T04:58:08.171Z,1008.40
2023-05-06T04:59:08.163Z,1008.46
2023-05-06T05:00:08.460Z,1008.44
2023-05-06T05:01:08.156Z,1008.45
2023-05-06T05:02:08.175Z,1008.41
2023-05-06T05:03:08.293Z,1008.37
2023-05-06T05:04:08.109Z,1008.39
2023-05-06T05:05:08.218Z,1008.38
2023-05-06T05:06:08.122Z,1008.34
2023-05-06T05:07:08.067Z,1008.36
2023-05-06T05:08:08.049Z,1008.41
2023-05-06T05:09:08.080Z,1008.42
2023-05-06T05:10:08.080Z,1008.41
2023-05-06T05:11:08.041Z,1008.49
2023-05-06T05:12:08.041Z,1008.50
2023-05-06T05:13:08.060Z,1008.51
2023-05-06T05:14:08.019Z,1008.51
2023-05-06T05:15:08.252Z,1008.54
2023-05-06T05:16:07.992Z,1008.54
2023-05-06T05:17:08.050Z,1008.56
2023-05-06T05:18:08.022Z,1008.58
2023-05-06T05:19:09.363Z,1008.55
2023-05-06T05:20:07.987Z,1008.59
2023-05-06T05:21:07.922Z,1008.60
2023-05-06T05:22:07.944Z,1008.61
2023-05-06T05:23:07.886Z,1008.60
2023-05-06T05:24:07.899Z,1008.61
2023-05-06T05:25:08.577Z,1008.61
2023-05-06T05:26:07.882Z,1008.58
2023-05-06T05:27:07.888Z,1008.56
2023-05-06T05:28:07.856Z,1008.61
2023-05-06T05:29:07.835Z,1008.59
2023-05-06T05:30:07.847Z,1008.63
2023-05-06T05:31:09.750Z,1008.66
2023-05-06T05:32:07.952Z,1008.68
2023-05-06T05:33:07.999Z,1008.70
2023-05-06T05:34:07.789Z,1008.67
2023-05-06T05:35:07.993Z,1008.71
2023-05-06T05:36:07.768Z,1008.70
2023-05-06T05:37:07.746Z,1008.68
2023-05-06T05:38:07.772Z,1008.68
2023-05-06T05:39:07.724Z,1008.68
2023-05-06T05:40:07.721Z,1008.63
2023-05-06T05:41:07.744Z,1008.63
2023-05-06T05:42:07.724Z,1008.68
2023-05-06T05:43:07.692Z,1008.69
2023-05-06T05:44:07.696Z,1008.74
2023-05-06T05:45:08.018Z,1008.76
2023-05-06T05:46:07.779Z,1008.76
2023-05-06T05:47:08.432Z,1008.75
2023-05-06T05:48:07.704Z,1008.78
2023-05-06T05:49:07.614Z,1008.77
2023-05-06T05:50:07.694Z,1008.81
2023-05-06T05:51:07.626Z,1008.83
2023-05-06T05:52:07.603Z,1008.85
2023-05-06T05:53:07.598Z,1008.80
2023-05-06T05:54:07.673Z,1008.78
2023-05-06T05:55:07.654Z,1008.79
2023-05-06T05:56:11.495Z,1008.83
2023-05-06T05:57:07.552Z,1008.79
2023-05-06T05:58:11.562Z,1008.79
2023-05-06T05:59:07.526Z,1008.79
2023-05-06T06:00:07.505Z,1008.73
2023-05-06T06:01:07.492Z,1008.75
2023-05-06T06:02:07.477Z,1008.73
2023-05-06T06:03:07.551Z,1008.76
2023-05-06T06:04:07.597Z,1008.81
2023-05-06T06:05:07.609Z,1008.76
2023-05-06T06:06:07.457Z,1008.79
2023-05-06T06:07:07.442Z,1008.79
2023-05-06T06:08:07.440Z,1008.83
2023-05-06T06:09:07.442Z,1008.87
2023-05-06T06:10:07.449Z,1008.88
2023-05-06T06:11:07.408Z,1008.91
2023-05-06T06:12:07.384Z,1008.94
2023-05-06T06:13:07.563Z,1008.98
2023-05-06T06:14:07.370Z,1009.01
2023-05-06T06:15:07.394Z,1008.96
2023-05-06T06:16:07.384Z,1008.96
2023-05-06T06:17:07.474Z,1008.90
2023-05-06T06:18:07.328Z,1008.89
2023-05-06T06:19:07.297Z,1008.86
2023-05-06T06:20:07.297Z,1008.91
2023-05-06T06:21:07.304Z,1008.88
2023-05-06T06:22:07.272Z,1008.91
2023-05-06T06:23:07.257Z,1008.96
2023-05-06T06:24:07.302Z,1008.97
2023-05-06T06:25:07.314Z,1008.99
2023-05-06T06:26:07.243Z,1008.96
2023-05-06T06:27:07.214Z,1008.98
2023-05-06T06:28:07.212Z,1009.00
2023-05-06T06:29:07.218Z,1009.00
2023-05-06T06:30:07.227Z,1009.02
2023-05-06T06:31:07.177Z,1009.04
2023-05-06T06:32:07.292Z,1008.99
2023-05-06T06:33:07.193Z,1008.98
2023-05-06T06:34:07.173Z,1008.98
2023-05-06T06:35:07.262Z,1008.94
2023-05-06T06:36:07.128Z,1008.93
2023-05-06T06:37:08.004Z,1008.90
2023-05-06T06:38:07.092Z,1008.91
2023-05-06T06:39:07.058Z,1008.92
2023-05-06T06:40:07.060Z,1008.94
2023-05-06T06:41:07.055Z,1008.99
2023-05-06T06:42:07.033Z,1008.97
2023-05-06T06:43:07.050Z,1008.99
2023-05-06T06:44:07.055Z,1009.04
2023-05-06T06:45:07.092Z,1009.05
2023-05-06T06:46:07.055Z,1009.04
2023-05-06T06:47:07.025Z,1009.06
2023-05-06T06:48:07.080Z,1009.01
2023-05-06T06:49:06.995Z,1008.99
2023-05-06T06:50:06.963Z,1008.99
2023-05-06T06:51:06.960Z,1009.00
2023-05-06T06:52:06.958Z,1009.05
2023-05-06T06:53:06.968Z,1009.07
2023-05-06T06:54:06.947Z,1009.10
2023-05-06T06:55:06.906Z,1009.13
2023-05-06T06:56:06.904Z,1009.11
2023-05-06T06:57:06.945Z,1009.12
2023-05-06T06:58:06.895Z,1009.09
2023-05-06T06:59:06.868Z,1009.07
2023-05-06T07:00:06.864Z,1009.08
2023-05-06T07:01:06.917Z,1008.98
2023-05-06T07:02:06.857Z,1009.01
2023-05-06T07:03:06.938Z,1009.01
2023-05-06T07:04:07.366Z,1009.02
2023-05-06T07:05:06.798Z,1009.06
2023-05-06T07:06:06.812Z,1009.11
2023-05-06T07:07:06.771Z,1009.06
2023-05-06T07:08:06.781Z,1009.06
2023-05-06T07:09:06.767Z,1009.05
2023-05-06T07:10:06.783Z,1009.05
2023-05-06T07:11:06.821Z,1009.02
2023-05-06T07:12:06.761Z,1009.05
2023-05-06T07:13:06.761Z,1009.06
2023-05-06T07:14:06.721Z,1009.12
2023-05-06T07:15:06.698Z,1009.13
2023-05-06T07:16:06.683Z,1009.11
2023-05-06T07:17:06.697Z,1009.15
2023-05-06T07:18:06.790Z,1009.14
2023-05-06T07:19:06.860Z,1009.18
2023-05-06T07:20:06.654Z,1009.17
2023-05-06T07:21:06.628Z,1009.17
2023-05-06T07:22:06.628Z,1009.19
2023-05-06T07:23:06.641Z,1009.21
2023-05-06T07:24:06.598Z,1009.20
2023-05-06T07:25:06.575Z,1009.22
2023-05-06T07:26:06.585Z,1009.22
2023-05-06T07:27:06.582Z,1009.24
2023-05-06T07:28:06.583Z,1009.25
2023-05-06T07:29:13.639Z,1009.23
2023-05-06T07:30:06.520Z,1009.25
2023-05-06T07:31:06.569Z,1009.28
2023-05-06T07:32:09.275Z,1009.28
2023-05-06T07:33:06.546Z,1009.30
2023-05-06T07:34:06.546Z,1009.25
2023-05-06T07:35:06.495Z,1009.23
2023-05-06T07:36:06.590Z,1009.13
2023-05-06T07:37:06.525Z,1009.13
2023-05-06T07:38:06.503Z,1009.16
2023-05-06T07:39:06.455Z,1009.22
2023-05-06T07:40:06.492Z,1009.20
2023-05-06T07:41:06.481Z,1009.15
2023-05-06T07:42:06.409Z,1009.16
2023-05-06T07:43:06.476Z,1009.17
2023-05-06T07:44:06.412Z,1009.18
2023-05-06T07:45:06.368Z,1009.21
2023-05-06T07:46:06.439Z,1009.24
2023-05-06T07:47:06.488Z,1009.23
2023-05-06T07:48:06.386Z,1009.24
2023-05-06T07:49:06.321Z,1009.23
2023-05-06T07:50:07.245Z,1009.24
2023-05-06T07:51:06.343Z,1009.22
2023-05-06T07:52:06.296Z,1009.23
2023-05-06T07:53:06.278Z,1009.26
2023-05-06T07:54:06.305Z,1009.26
2023-05-06T07:55:06.245Z,1009.28
2023-05-06T07:56:06.246Z,1009.25
2023-05-06T07:57:06.236Z,1009.29
2023-05-06T07:58:06.243Z,1009.34
2023-05-06T07:59:06.225Z,1009.38
2023-05-06T08:00:06.229Z,1009.38
2023-05-06T08:01:06.210Z,1009.39
2023-05-06T08:02:06.240Z,1009.37
2023-05-06T08:03:06.312Z,1009.38
2023-05-06T08:04:06.255Z,1009.38
2023-05-06T08:05:06.134Z,1009.41
2023-05-06T08:06:06.151Z,1009.38
2023-05-06T08:07:06.120Z,1009.36
2023-05-06T08:08:06.120Z,1009.34
2023-05-06T08:09:06.104Z,1009.36
2023-05-06T08:10:06.100Z,1009.42
2023-05-06T08:11:06.113Z,1009.38
2023-05-06T08:12:06.086Z,1009.38
2023-05-06T08:13:06.121Z,1009.45
2023-05-06T08:14:06.883Z,1009.40
2023-05-06T08:15:06.061Z,1009.42
2023-05-06T08:16:06.113Z,1009.41
2023-05-06T08:17:06.126Z,1009.46
2023-05-06T08:18:20.876Z,1009.50
2023-05-06T08:19:07.135Z,1009.46
2023-05-06T08:20:05.994Z,1009.52
2023-05-06T08:21:06.364Z,1009.49
2023-05-06T08:22:06.018Z,1009.47
2023-05-06T08:23:05.983Z,1009.56
2023-05-06T08:24:05.957Z,1009.53
2023-05-06T08:25:06.072Z,1009.51
2023-05-06T08:26:05.920Z,1009.52
2023-05-06T08:27:05.913Z,1009.53
2023-05-06T08:28:05.938Z,1009.56
2023-05-06T08:29:05.902Z,1009.51
2023-05-06T08:30:05.896Z,1009.58
2023-05-06T08:31:05.940Z,1009.56
2023-05-06T08:32:05.912Z,1009.56
2023-05-06T08:33:05.920Z,1009.59
2023-05-06T08:34:05.877Z,1009.56
2023-05-06T08:35:05.854Z,1009.56
2023-05-06T08:36:05.823Z,1009.60
2023-05-06T08:37:05.845Z,1009.54
2023-05-06T08:38:05.822Z,1009.62
2023-05-06T08:39:05.815Z,1009.66
2023-05-06T08:40:05.797Z,1009.65
2023-05-06T08:41:05.783Z,1009.63
2023-05-06T08:42:05.759Z,1009.64
2023-05-06T08:43:05.750Z,1009.64
2023-05-06T08:44:05.735Z,1009.62
2023-05-06T08:45:05.733Z,1009.64
2023-05-06T08:46:05.723Z,1009.66
2023-05-06T08:47:05.810Z,1009.61
2023-05-06T08:48:05.714Z,1009.64
2023-05-06T08:49:05.709Z,1009.58
2023-05-06T08:50:05.692Z,1009.59
2023-05-06T08:51:05.698Z,1009.57
2023-05-06T08:52:07.161Z,1009.60
2023-05-06T08:53:05.668Z,1009.56
2023-05-06T08:54:05.641Z,1009.53
2023-05-06T08:55:05.638Z,1009.56
2023-05-06T08:56:05.624Z,1009.60
2023-05-06T08:57:05.620Z,1009.60
2023-05-06T08:58:06.587Z,1009.53
2023-05-06T08:59:05.605Z,1009.64
2023-05-06T09:00:05.567Z,1009.61
2023-05-06T09:01:05.614Z,1009.66
2023-05-06T09:02:05.579Z,1009.60
2023-05-06T09:03:05.642Z,1009.56
2023-05-06T09:04:05.534Z,1009.54
2023-05-06T09:05:05.531Z,1009.55
2023-05-06T09:06:05.521Z,1009.55
2023-05-06T09:07:05.514Z,1009.58
2023-05-06T09:08:05.466Z,1009.57
2023-05-06T09:09:05.484Z,1009.60
2023-05-06T09:10:05.447Z,1009.63
2023-05-06T09:11:05.491Z,1009.58
2023-05-06T09:12:05.448Z,1009.56
2023-05-06T09:13:05.465Z,1009.57
2023-05-06T09:14:05.422Z,1009.58
2023-05-06T09:15:05.532Z,1009.51
2023-05-06T09:16:05.421Z,1009.54
2023-05-06T09:17:05.524Z,1009.55
2023-05-06T09:18:05.503Z,1009.52
2023-05-06T09:19:05.392Z,1009.51
2023-05-06T09:20:05.334Z,1009.49
2023-05-06T09:21:05.340Z,1009.49
2023-05-06T09:22:05.345Z,1009.48
2023-05-06T09:23:06.590Z,1009.45
2023-05-06T09:24:05.368Z,1009.46
2023-05-06T09:25:05.323Z,1009.46
2023-05-06T09:26:05.280Z,1009.42
2023-05-06T09:27:05.302Z,1009.44
2023-05-06T09:28:05.258Z,1009.44
2023-05-06T09:29:05.258Z,1009.44
2023-05-06T09:30:05.239Z,1009.44
2023-05-06T09:31:05.285Z,1009.47
2023-05-06T09:32:05.251Z,1009.48
2023-05-06T09:33:05.292Z,1009.47
2023-05-06T09:34:05.214Z,1009.38
2023-05-06T09:35:05.239Z,1009.39
2023-05-06T09:36:05.260Z,1009.40
2023-05-06T09:37:05.196Z,1009.42
2023-05-06T09:38:07.073Z,1009.41
2023-05-06T09:39:05.206Z,1009.44
2023-05-06T09:40:05.256Z,1009.40
2023-05-06T09:41:05.124Z,1009.36
2023-05-06T09:42:05.118Z,1009.39
2023-05-06T09:43:05.144Z,1009.39
2023-05-06T09:44:05.108Z,1009.43
2023-05-06T09:45:05.583Z,1009.42
2023-05-06T09:46:05.108Z,1009.41
2023-05-06T09:47:05.080Z,1009.40
2023-05-06T09:48:05.100Z,1009.41
2023-05-06T09:49:05.053Z,1009.40
2023-05-06T09:50:05.033Z,1009.44
2023-05-06T09:51:05.060Z,1009.41
2023-05-06T09:52:05.030Z,1009.42
2023-05-06T09:53:05.012Z,1009.40
2023-05-06T09:54:06.384Z,1009.39
2023-05-06T09:55:04.995Z,1009.41
2023-05-06T09:56:04.985Z,1009.40
2023-05-06T09:57:04.985Z,1009.40
2023-05-06T09:58:04.959Z,1009.40
2023-05-06T09:59:04.959Z,1009.41
2023-05-06T10:00:04.922Z,1009.40
2023-05-06T10:01:04.926Z,1009.36
2023-05-06T10:02:04.942Z,1009.33
2023-05-06T10:03:05.007Z,1009.34
2023-05-06T10:04:05.115Z,1009.29
2023-05-06T10:05:04.979Z,1009.34
2023-05-06T10:06:04.876Z,1009.31
2023-05-06T10:07:04.857Z,1009.28
2023-05-06T10:08:04.848Z,1009.33
2023-05-06T10:09:04.886Z,1009.30
2023-05-06T10:10:04.796Z,1009.23
2023-05-06T10:11:04.822Z,1009.23
2023-05-06T10:12:04.794Z,1009.24
2023-05-06T10:13:05.004Z,1009.26
2023-05-06T10:14:04.783Z,1009.23
2023-05-06T10:15:04.761Z,1009.30
2023-05-06T10:16:04.829Z,1009.19
2023-05-06T10:17:04.746Z,1009.25
2023-05-06T10:18:04.762Z,1009.22
2023-05-06T10:19:04.747Z,1009.26
2023-05-06T10:20:04.736Z,1009.22
2023-05-06T10:21:04.714Z,1009.21
2023-05-06T10:22:05.744Z,1009.18
2023-05-06T10:23:04.686Z,1009.18
2023-05-06T10:24:04.668Z,1009.17
2023-05-06T10:25:08.666Z,1009.18
2023-05-06T10:26:04.657Z,1009.16
2023-05-06T10:27:04.649Z,1009.19
2023-05-06T10:28:06.497Z,1009.17
2023-05-06T10:29:05.621Z,1009.17
2023-05-06T10:30:04.600Z,1009.16
2023-05-06T10:31:04.605Z,1009.20
2023-05-06T10:32:04.648Z,1009.17
2023-05-06T10:33:04.619Z,1009.17
2023-05-06T10:34:04.581Z,1009.16
2023-05-06T10:35:04.551Z,1009.14
2023-05-06T10:36:04.548Z,1009.15
2023-05-06T10:37:04.525Z,1009.20
2023-05-06T10:38:04.513Z,1009.16
2023-05-06T10:39:04.518Z,1009.17
2023-05-06T10:40:04.508Z,1009.14
2023-05-06T10:41:04.492Z,1009.14
2023-05-06T10:42:04.468Z,1009.11
2023-05-06T10:43:04.475Z,1009.09
2023-05-06T10:44:04.461Z,1009.14
2023-05-06T10:45:04.511Z,1009.08
2023-05-06T10:46:04.439Z,1009.10
2023-05-06T10:47:04.425Z,1009.11
2023-05-06T10:48:04.421Z,1009.09
2023-05-06T10:49:04.413Z,1009.11
2023-05-06T10:50:04.390Z,1009.08
2023-05-06T10:51:04.388Z,1009.10
2023-05-06T10:52:04.374Z,1009.11
2023-05-06T10:53:04.372Z,1009.07
2023-05-06T10:54:04.355Z,1009.03
2023-05-06T10:55:04.328Z,1009.05
2023-05-06T10:56:04.387Z,1009.08
2023-05-06T10:57:04.314Z,1009.02
2023-05-06T10:58:04.280Z,1009.02
2023-05-06T10:59:04.328Z,1009.03
2023-05-06T11:00:04.296Z,1009.01
2023-05-06T11:01:04.332Z,1009.02
2023-05-06T11:02:04.352Z,1009.03
2023-05-06T11:03:04.330Z,1009.00
2023-05-06T11:04:04.257Z,1009.01
2023-05-06T11:05:04.252Z,1008.98
2023-05-06T11:06:04.240Z,1008.99
2023-05-06T11:07:04.206Z,1008.96
2023-05-06T11:08:04.212Z,1009.02
2023-05-06T11:09:04.240Z,1008.96
2023-05-06T11:10:04.169Z,1008.97
2023-05-06T11:11:04.347Z,1008.96
2023-05-06T11:12:04.184Z,1008.92
2023-05-06T11:13:04.229Z,1008.97
2023-05-06T11:14:04.097Z,1008.99
2023-05-06T11:15:04.136Z,1008.92
2023-05-06T11:16:04.119Z,1008.91
2023-05-06T11:17:04.197Z,1008.91
2023-05-06T11:18:04.166Z,1008.94
2023-05-06T11:19:04.078Z,1008.93
2023-05-06T11:20:04.060Z,1008.91
2023-05-06T11:21:04.089Z,1008.89
2023-05-06T11:22:04.075Z,1008.88
2023-05-06T11:23:04.031Z,1008.94
2023-05-06T11:24:04.051Z,1008.81
2023-05-06T11:25:04.021Z,1008.81
2023-05-06T11:26:04.099Z,1008.80
2023-05-06T11:27:04.184Z,1008.82
2023-05-06T11:28:04.013Z,1008.85
2023-05-06T11:29:04.095Z,1008.87
2023-05-06T11:30:04.009Z,1008.81
2023-05-06T11:31:04.025Z,1008.80
2023-05-06T11:32:03.995Z,1008.84
2023-05-06T11:33:05.573Z,1008.83
2023-05-06T11:34:03.959Z,1008.80
2023-05-06T11:35:03.953Z,1008.86
2023-05-06T11:36:03.913Z,1008.88
2023-05-06T11:37:03.898Z,1008.79
2023-05-06T11:38:03.943Z,1008.78
2023-05-06T11:39:05.238Z,1008.77
2023-05-06T11:40:03.862Z,1008.72
2023-05-06T11:41:03.906Z,1008.82
2023-05-06T11:42:03.893Z,1008.78
2023-05-06T11:43:03.850Z,1008.74
2023-05-06T11:44:03.818Z,1008.74
2023-05-06T11:45:03.810Z,1008.80
2023-05-06T11:46:03.833Z,1008.83
2023-05-06T11:47:03.824Z,1008.77
2023-05-06T11:48:03.831Z,1008.81
2023-05-06T11:49:03.770Z,1008.79
2023-05-06T11:50:03.774Z,1008.81
2023-05-06T11:51:03.766Z,1008.82
2023-05-06T11:52:03.733Z,1008.84
2023-05-06T11:53:03.726Z,1008.84
2023-05-06T11:54:03.715Z,1008.86
2023-05-06T11:55:03.709Z,1008.93
2023-05-06T11:56:03.705Z,1008.85
2023-05-06T11:57:03.689Z,1008.86
2023-05-06T11:58:03.733Z,1008.83
2023-05-06T11:59:03.670Z,1008.85
2023-05-06T12:00:03.667Z,1008.79
2023-05-06T12:01:03.657Z,1008.80
2023-05-06T12:02:03.667Z,1008.78
2023-05-06T12:03:03.699Z,1008.79
2023-05-06T12:04:03.713Z,1008.71
2023-05-06T12:05:03.701Z,1008.71